createdAt,value
2023-08-12T00:02:17.320Z,20.02
2023-08-12T00:04:44.502Z,20.02
2023-08-12T00:07:11.758Z,20.01
2023-08-12T00:09:39.066Z,20.01
2023-08-12T00:12:06.252Z,20.00
2023-08-12T00:14:33.334Z,20.00
2023-08-12T00:17:00.450Z,19.95
2023-08-12T00:19:27.444Z,20.00
2023-08-12T00:21:54.424Z,19.97
2023-08-12T00:24:21.600Z,20.00
2023-08-12T00:26:48.656Z,19.99
2023-08-12T00:29:15.718Z,19.98
2023-08-12T00:31:42.710Z,19.96
2023-08-12T00:34:09.620Z,19.92
2023-08-12T00:36:36.748Z,19.94
2023-08-12T00:39:05.254Z,19.94
2023-08-12T00:41:32.284Z,19.94
2023-08-12T00:43:59.434Z,19.94
2023-08-12T00:46:26.712Z,19.93
2023-08-12T00:48:53.916Z,19.94
2023-08-12T00:51:21.914Z,19.92
2023-08-12T00:53:49.660Z,19.91
2023-08-12T00:56:18.422Z,19.92
2023-08-12T00:58:46.339Z,19.90
2023-08-12T01:01:13.897Z,19.89
2023-08-12T01:03:41.346Z,19.90
2023-08-12T01:06:08.576Z,19.91
2023-08-12T01:08:36.940Z,19.92
2023-08-12T01:11:13.548Z,19.92
2023-08-12T01:13:51.219Z,19.91
2023-08-12T01:16:19.845Z,19.89
2023-08-12T01:18:48.579Z,19.87
2023-08-12T01:21:18.592Z,19.88
2023-08-12T01:23:46.321Z,19.87
2023-08-12T01:26:13.394Z,19.86
2023-08-12T01:28:40.449Z,19.88
2023-08-12T01:31:13.702Z,19.87
2023-08-12T01:33:45.559Z,19.87
2023-08-12T01:36:21.795Z,19.85
2023-08-12T01:38:52.591Z,19.83
2023-08-12T01:41:21.555Z,19.83
2023-08-12T01:43:48.775Z,19.81
2023-08-12T01:46:15.800Z,19.81
2023-08-12T01:48:42.889Z,19.80
2023-08-12T01:51:09.935Z,19.81
2023-08-12T01:53:37.013Z,19.78
2023-08-12T01:56:04.112Z,19.78
2023-08-12T01:58:31.113Z,19.79
2023-08-12T02:00:58.178Z,19.79
2023-08-12T02:03:25.238Z,19.79
2023-08-12T02:05:52.292Z,19.79
2023-08-12T02:08:19.328Z,19.79
2023-08-12T02:10:46.301Z,19.79
2023-08-12T02:13:13.182Z,19.77
2023-08-12T02:15:40.214Z,19.75
2023-08-12T02:18:07.312Z,19.75
2023-08-12T02:20:34.420Z,19.73
2023-08-12T02:23:01.468Z,19.76
2023-08-12T02:25:28.457Z,19.76
2023-08-12T02:27:55.482Z,19.74
2023-08-12T02:30:22.425Z,19.74
2023-08-12T02:32:49.877Z,19.73
2023-08-12T02:35:19.129Z,19.74
2023-08-12T02:37:46.047Z,19.73
2023-08-12T02:40:13.216Z,19.72
2023-08-12T02:42:40.219Z,19.72
2023-08-12T02:45:07.777Z,19.68
2023-08-12T02:47:34.941Z,19.69
2023-08-12T02:50:01.990Z,19.70
2023-08-12T02:52:29.015Z,19.72
2023-08-12T02:54:57.702Z,19.70
2023-08-12T02:57:24.826Z,19.69
2023-08-12T02:59:51.807Z,19.68
2023-08-12T03:02:18.870Z,19.68
2023-08-12T03:04:45.870Z,19.66
2023-08-12T03:07:13.073Z,19.64
2023-08-12T03:09:40.302Z,19.63
2023-08-12T03:12:07.664Z,19.62
2023-08-12T03:14:34.689Z,19.60
2023-08-12T03:17:01.678Z,19.60
2023-08-12T03:19:28.620Z,19.60
2023-08-12T03:21:55.734Z,19.59
2023-08-12T03:24:22.828Z,19.58
2023-08-12T03:26:49.776Z,19.60
2023-08-12T03:29:16.742Z,19.60
2023-08-12T03:31:43.862Z,19.60
2023-08-12T03:34:10.869Z,19.60
2023-08-12T03:36:37.906Z,19.59
2023-08-12T03:39:04.987Z,19.60
2023-08-12T03:41:32.292Z,19.56
2023-08-12T03:43:59.348Z,19.58
2023-08-12T03:46:26.359Z,19.58
2023-08-12T03:48:53.448Z,19.59
2023-08-12T03:51:20.503Z,19.57
2023-08-12T03:53:47.572Z,19.56
2023-08-12T03:56:16.652Z,19.56
2023-08-12T03:58:44.234Z,19.57
2023-08-12T04:01:11.337Z,19.57
2023-08-12T04:03:38.448Z,19.54
2023-08-12T04:06:05.461Z,19.55
2023-08-12T04:08:33.666Z,19.55
2023-08-12T04:11:00.715Z,19.55
2023-08-12T04:13:28.064Z,19.53
2023-08-12T04:15:55.125Z,19.54
2023-08-12T04:18:22.507Z,19.56
2023-08-12T04:20:53.953Z,19.58
2023-08-12T04:23:21.399Z,19.56
2023-08-12T04:25:49.567Z,19.56
2023-08-12T04:28:17.372Z,19.55
2023-08-12T04:30:45.609Z,19.55
2023-08-12T04:33:13.793Z,19.54
2023-08-12T04:35:41.554Z,19.54
2023-08-12T04:38:08.896Z,19.59
2023-08-12T04:40:35.970Z,19.62
2023-08-12T04:43:03.221Z,19.58
2023-08-12T04:45:30.296Z,19.55
2023-08-12T04:47:57.429Z,19.58
2023-08-12T04:50:24.464Z,19.59
2023-08-12T04:52:51.394Z,19.65
2023-08-12T04:55:18.697Z,19.64
2023-08-12T04:57:45.688Z,19.64
2023-08-12T05:00:13.749Z,19.71
2023-08-12T05:02:40.867Z,19.73
2023-08-12T05:05:08.288Z,19.73
2023-08-12T05:07:35.433Z,19.76
2023-08-12T05:10:03.500Z,19.76
2023-08-12T05:12:30.576Z,19.78
2023-08-12T05:14:57.523Z,19.77
2023-08-12T05:17:24.456Z,19.78
2023-08-12T05:19:51.489Z,19.79
2023-08-12T05:22:18.600Z,19.82
2023-08-12T05:24:45.560Z,19.84
2023-08-12T05:27:12.601Z,19.85
2023-08-12T05:29:39.556Z,19.83
2023-08-12T05:32:06.798Z,19.87
2023-08-12T05:34:33.919Z,19.88
2023-08-12T05:37:00.884Z,19.88
2023-08-12T05:39:27.878Z,19.88
2023-08-12T05:41:54.913Z,19.90
2023-08-12T05:44:21.929Z,19.89
2023-08-12T05:46:48.959Z,19.88
2023-08-12T05:49:16.121Z,19.87
2023-08-12T05:51:43.338Z,19.89
2023-08-12T05:54:10.340Z,19.86
2023-08-12T05:56:37.388Z,19.80
2023-08-12T05:59:04.625Z,19.79
2023-08-12T06:01:31.656Z,19.81
2023-08-12T06:03:58.767Z,19.82
2023-08-12T06:06:25.819Z,19.85
2023-08-12T06:08:52.856Z,19.88
2023-08-12T06:11:19.870Z,19.90
2023-08-12T06:13:46.894Z,19.91
2023-08-12T06:16:13.986Z,19.92
2023-08-12T06:18:41.046Z,19.92
2023-08-12T06:21:08.192Z,19.93
2023-08-12T06:23:35.192Z,19.93
2023-08-12T06:26:02.519Z,19.94
2023-08-12T06:28:29.601Z,19.95
2023-08-12T06:30:56.562Z,19.96
2023-08-12T06:33:23.671Z,19.96
2023-08-12T06:35:52.528Z,19.98
2023-08-12T06:38:19.660Z,19.98
2023-08-12T06:40:48.744Z,19.96
2023-08-12T06:43:15.723Z,20.00
2023-08-12T06:45:42.793Z,20.01
2023-08-12T06:48:09.846Z,20.01
2023-08-12T06:50:37.031Z,20.01
2023-08-12T06:53:04.133Z,20.02
2023-08-12T06:55:31.125Z,20.02
2023-08-12T06:57:58.245Z,20.01
2023-08-12T07:00:25.406Z,20.00
2023-08-12T07:02:52.580Z,20.04
2023-08-12T07:05:19.726Z,20.04
2023-08-12T07:07:46.729Z,20.04
2023-08-12T07:10:13.775Z,20.05
2023-08-12T07:12:40.790Z,20.05
2023-08-12T07:15:09.268Z,19.98
2023-08-12T07:17:36.562Z,19.90
2023-08-12T07:20:05.695Z,19.88
2023-08-12T07:22:32.791Z,19.87
2023-08-12T07:25:01.610Z,19.86
2023-08-12T07:27:29.797Z,19.82
2023-08-12T07:29:57.138Z,19.83
2023-08-12T07:32:24.282Z,19.88
2023-08-12T07:34:51.331Z,19.91
2023-08-12T07:37:18.778Z,19.93
2023-08-12T07:39:45.979Z,19.96
2023-08-12T07:42:13.896Z,20.00
2023-08-12T07:44:41.849Z,20.02
2023-08-12T07:47:09.221Z,20.04
2023-08-12T07:49:36.903Z,20.03
2023-08-12T07:52:04.241Z,20.05
2023-08-12T07:54:34.441Z,20.03
2023-08-12T07:57:01.563Z,20.03
2023-08-12T07:59:28.668Z,20.08
2023-08-12T08:01:55.782Z,20.12
2023-08-12T08:04:22.892Z,20.12
2023-08-12T08:06:51.605Z,20.15
2023-08-12T08:09:18.990Z,20.14
2023-08-12T08:11:46.329Z,20.13
2023-08-12T08:14:13.616Z,20.15
2023-08-12T08:16:43.381Z,20.16
2023-08-12T08:19:13.442Z,20.16
2023-08-12T08:21:40.710Z,20.17
2023-08-12T08:24:08.190Z,20.18
2023-08-12T08:26:35.682Z,20.18
2023-08-12T08:29:03.264Z,20.22
2023-08-12T08:31:31.485Z,20.21
2023-08-12T08:33:58.947Z,20.22
2023-08-12T08:36:26.208Z,20.23
2023-08-12T08:38:53.548Z,20.25
2023-08-12T08:41:21.578Z,20.26
2023-08-12T08:43:50.476Z,20.27
2023-08-12T08:46:18.061Z,20.28
2023-08-12T08:48:45.932Z,20.31
2023-08-12T08:51:13.233Z,20.33
2023-08-12T08:53:41.739Z,20.35
2023-08-12T08:56:15.952Z,20.36
2023-08-12T08:58:43.545Z,20.37
2023-08-12T09:01:12.528Z,20.38
2023-08-12T09:03:41.132Z,20.39
2023-08-12T09:06:08.760Z,20.42
2023-08-12T09:08:37.616Z,20.40
2023-08-12T09:11:04.927Z,20.44
2023-08-12T09:13:32.670Z,20.36
2023-08-12T09:16:01.126Z,20.35
2023-08-12T09:18:28.172Z,20.38
2023-08-12T09:20:55.572Z,20.37
2023-08-12T09:23:22.792Z,20.41
2023-08-12T09:25:50.176Z,20.40
2023-08-12T09:28:17.235Z,20.43
2023-08-12T09:30:51.455Z,20.40
2023-08-12T09:33:27.042Z,20.38
2023-08-12T09:35:55.096Z,20.38
2023-08-12T09:38:23.000Z,20.39
2023-08-12T09:40:50.687Z,20.42
2023-08-12T09:43:18.181Z,20.44
2023-08-12T09:45:48.506Z,20.45
2023-08-12T09:48:18.644Z,20.46
2023-08-12T09:50:46.943Z,20.40
2023-08-12T09:53:14.111Z,20.38
2023-08-12T09:55:43.013Z,20.37
2023-08-12T09:58:13.135Z,20.36
2023-08-12T10:00:43.041Z,20.34
2023-08-12T10:03:12.770Z,20.33
2023-08-12T10:05:40.831Z,20.33
2023-08-12T10:08:09.596Z,20.31
2023-08-12T10:10:37.436Z,20.32
2023-08-12T10:13:08.882Z,20.33
2023-08-12T10:15:37.048Z,20.29
2023-08-12T10:18:09.628Z,20.25
2023-08-12T10:20:39.218Z,20.26
2023-08-12T10:23:08.384Z,20.24
2023-08-12T10:25:39.013Z,20.22
2023-08-12T10:28:06.542Z,20.24
2023-08-12T10:30:36.465Z,20.26
2023-08-12T10:33:04.978Z,20.26
2023-08-12T10:35:46.915Z,20.27
2023-08-12T10:38:17.989Z,20.26
2023-08-12T10:40:46.590Z,20.22
2023-08-12T10:43:16.142Z,20.26
2023-08-12T10:45:54.183Z,20.21
2023-08-12T10:48:25.221Z,20.21
2023-08-12T10:50:59.312Z,20.19
2023-08-12T10:53:31.339Z,20.19
2023-08-12T10:56:00.846Z,20.18
2023-08-12T10:58:35.339Z,20.15
2023-08-12T11:01:02.980Z,20.16
2023-08-12T11:03:39.235Z,20.19
2023-08-12T11:06:06.487Z,20.15
2023-08-12T11:08:34.910Z,20.14
2023-08-12T11:11:04.434Z,20.12
2023-08-12T11:13:32.013Z,20.12
2023-08-12T11:16:10.979Z,20.13
2023-08-12T11:18:38.537Z,20.11
2023-08-12T11:21:07.055Z,20.12
2023-08-12T11:23:34.438Z,20.11
2023-08-12T11:26:02.694Z,20.11
2023-08-12T11:28:30.419Z,20.05
2023-08-12T11:30:57.781Z,20.10
2023-08-12T11:33:25.569Z,20.09
2023-08-12T11:35:53.065Z,20.09
2023-08-12T11:38:20.391Z,20.12
2023-08-12T11:40:48.178Z,20.13
2023-08-12T11:43:15.357Z,20.13
2023-08-12T11:45:43.708Z,20.14
2023-08-12T11:48:11.967Z,20.18
2023-08-12T11:50:39.741Z,20.17
2023-08-12T11:53:07.163Z,20.18
2023-08-12T11:55:34.730Z,20.17
2023-08-12T11:58:02.067Z,20.13
2023-08-12T12:00:29.569Z,20.13
2023-08-12T12:02:58.585Z,20.13
2023-08-12T12:05:29.697Z,20.13
2023-08-12T12:07:57.126Z,20.14
2023-08-12T12:10:34.833Z,20.14
2023-08-12T12:13:04.608Z,20.16
2023-08-12T12:15:33.300Z,20.17
2023-08-12T12:18:00.729Z,20.16
2023-08-12T12:20:28.688Z,20.17
2023-08-12T12:22:56.436Z,20.18
2023-08-12T12:25:24.632Z,20.24
2023-08-12T12:27:51.939Z,20.29
2023-08-12T12:30:20.313Z,20.29
2023-08-12T12:32:47.501Z,20.30
2023-08-12T12:35:14.607Z,20.31
2023-08-12T12:37:41.707Z,20.30
2023-08-12T12:40:09.595Z,20.31
2023-08-12T12:42:36.630Z,20.33
2023-08-12T12:45:04.293Z,20.34
2023-08-12T12:47:31.814Z,20.34
2023-08-12T12:49:59.204Z,20.37
2023-08-12T12:52:26.609Z,20.40
2023-08-12T12:54:54.074Z,20.38
2023-08-12T12:57:21.268Z,20.39
2023-08-12T12:59:48.374Z,20.43
2023-08-12T13:02:15.716Z,20.47
2023-08-12T13:04:44.203Z,20.44
2023-08-12T13:07:11.268Z,20.53
2023-08-12T13:09:39.231Z,20.50
2023-08-12T13:12:06.809Z,20.50
2023-08-12T13:14:33.891Z,20.50
2023-08-12T13:17:00.981Z,20.52
2023-08-12T13:19:28.041Z,20.57
2023-08-12T13:21:55.134Z,20.57
2023-08-12T13:24:22.094Z,20.55
2023-08-12T13:26:49.244Z,20.55
2023-08-12T13:29:16.249Z,20.55
2023-08-12T13:31:43.496Z,20.54
2023-08-12T13:34:10.552Z,20.59
2023-08-12T13:36:37.997Z,20.59
2023-08-12T13:39:05.302Z,20.61
2023-08-12T13:41:32.391Z,20.60
2023-08-12T13:43:59.442Z,20.59
2023-08-12T13:46:26.601Z,20.64
2023-08-12T13:48:54.405Z,20.65
2023-08-12T13:51:21.549Z,20.63
2023-08-12T13:53:48.588Z,20.65
2023-08-12T13:56:16.299Z,20.71
2023-08-12T13:58:43.349Z,20.72
2023-08-12T14:01:10.373Z,20.70
2023-08-12T14:03:38.791Z,20.70
2023-08-12T14:06:06.406Z,20.71
2023-08-12T14:08:33.617Z,20.70
2023-08-12T14:11:01.208Z,20.71
2023-08-12T14:13:28.295Z,20.72
2023-08-12T14:15:55.803Z,20.71
2023-08-12T14:18:22.888Z,20.70
2023-08-12T14:20:50.016Z,20.73
2023-08-12T14:23:17.313Z,20.73
2023-08-12T14:25:44.406Z,20.71
2023-08-12T14:28:11.800Z,20.69
2023-08-12T14:30:39.205Z,20.67
2023-08-12T14:33:07.422Z,20.69
2023-08-12T14:35:36.038Z,20.71
2023-08-12T14:38:03.868Z,20.69
2023-08-12T14:40:32.320Z,20.70
2023-08-12T14:42:59.453Z,20.69
2023-08-12T14:45:26.754Z,20.68
2023-08-12T14:47:53.942Z,20.66
2023-08-12T14:50:21.118Z,20.67
2023-08-12T14:52:48.259Z,20.68
2023-08-12T14:55:15.595Z,20.68
2023-08-12T14:57:42.718Z,20.69
2023-08-12T15:00:12.057Z,20.69
2023-08-12T15:02:39.536Z,20.69
2023-08-12T15:05:07.949Z,20.69
2023-08-12T15:07:35.396Z,20.71
2023-08-12T15:10:02.734Z,20.73
2023-08-12T15:12:30.306Z,20.71
2023-08-12T15:14:58.543Z,20.72
2023-08-12T15:17:25.812Z,20.73
2023-08-12T15:19:53.606Z,20.77
2023-08-12T15:22:20.858Z,20.77
2023-08-12T15:24:48.065Z,20.77
2023-08-12T15:27:15.567Z,20.78
2023-08-12T15:29:43.013Z,20.79
2023-08-12T15:32:10.131Z,20.78
2023-08-12T15:34:37.448Z,20.82
2023-08-12T15:37:05.494Z,20.79
2023-08-12T15:39:32.842Z,20.78
2023-08-12T15:42:00.256Z,20.77
2023-08-12T15:44:27.313Z,20.77
2023-08-12T15:46:54.523Z,20.75
2023-08-12T15:49:22.083Z,20.81
2023-08-12T15:51:49.460Z,20.85
2023-08-12T15:54:16.631Z,20.81
2023-08-12T15:56:44.280Z,20.80
2023-08-12T15:59:11.437Z,20.80
2023-08-12T16:01:38.779Z,20.81
2023-08-12T16:04:06.756Z,20.77
2023-08-12T16:06:34.444Z,20.78
2023-08-12T16:09:17.641Z,20.76
2023-08-12T16:11:46.564Z,20.78
2023-08-12T16:14:13.815Z,20.78
2023-08-12T16:16:41.134Z,20.77
2023-08-12T16:19:08.323Z,20.77
2023-08-12T16:21:35.605Z,20.78
2023-08-12T16:24:02.778Z,20.78
2023-08-12T16:26:30.036Z,20.77
2023-08-12T16:28:57.327Z,20.76
2023-08-12T16:31:25.267Z,20.75
2023-08-12T16:33:52.231Z,20.77
2023-08-12T16:36:19.431Z,20.74
2023-08-12T16:38:46.816Z,20.77
2023-08-12T16:41:14.299Z,20.74
2023-08-12T16:43:41.499Z,20.74
2023-08-12T16:46:08.663Z,20.74
2023-08-12T16:48:35.819Z,20.73
2023-08-12T16:51:03.176Z,20.77
2023-08-12T16:53:30.535Z,20.76
2023-08-12T16:55:58.114Z,20.75
2023-08-12T16:58:25.232Z,20.74
2023-08-12T17:00:52.935Z,20.69
2023-08-12T17:03:20.178Z,20.66
2023-08-12T17:05:47.963Z,20.63
2023-08-12T17:08:15.744Z,20.66
2023-08-12T17:10:43.162Z,20.66
2023-08-12T17:13:10.449Z,20.64
2023-08-12T17:15:38.889Z,20.63
2023-08-12T17:18:06.363Z,20.60
2023-08-12T17:20:33.823Z,20.60
2023-08-12T17:23:01.339Z,20.58
2023-08-12T17:25:28.578Z,20.61
2023-08-12T17:27:58.147Z,20.63
2023-08-12T17:30:25.552Z,20.60
2023-08-12T17:32:52.743Z,20.60
2023-08-12T17:35:19.873Z,20.61
2023-08-12T17:37:47.027Z,20.58
2023-08-12T17:40:15.646Z,20.62
2023-08-12T17:42:42.860Z,20.61
2023-08-12T17:45:10.347Z,20.60
2023-08-12T17:47:37.803Z,20.60
2023-08-12T17:50:05.604Z,20.63
2023-08-12T17:52:34.234Z,20.60
2023-08-12T17:55:01.375Z,20.59
2023-08-12T17:57:28.662Z,20.63
2023-08-12T17:59:56.792Z,20.62
2023-08-12T18:02:24.178Z,20.62
2023-08-12T18:04:51.993Z,20.59
2023-08-12T18:07:19.076Z,20.58
2023-08-12T18:09:46.493Z,20.59
2023-08-12T18:12:14.366Z,20.59
2023-08-12T18:14:44.375Z,20.61
2023-08-12T18:17:12.148Z,20.62
2023-08-12T18:19:39.707Z,20.65
2023-08-12T18:22:08.387Z,20.70
2023-08-12T18:24:38.745Z,20.70
2023-08-12T18:27:06.701Z,20.72
2023-08-12T18:29:37.859Z,20.75
2023-08-12T18:32:06.854Z,20.76
2023-08-12T18:34:34.572Z,20.77
2023-08-12T18:37:02.441Z,20.78
2023-08-12T18:39:30.945Z,20.79
2023-08-12T18:41:58.458Z,20.81
2023-08-12T18:44:26.034Z,20.80
2023-08-12T18:46:53.846Z,20.83
2023-08-12T18:49:23.037Z,20.84
2023-08-12T18:51:51.003Z,20.84
2023-08-12T18:54:18.825Z,20.85
2023-08-12T18:56:49.583Z,20.83
2023-08-12T18:59:20.126Z,20.86
2023-08-12T19:01:53.910Z,20.80
2023-08-12T19:04:23.912Z,20.84
2023-08-12T19:06:51.850Z,20.85
2023-08-12T19:09:22.325Z,20.85
2023-08-12T19:11:50.936Z,20.85
2023-08-12T19:14:18.335Z,20.87
2023-08-12T19:16:45.814Z,20.87
2023-08-12T19:19:16.100Z,20.88
2023-08-12T19:21:44.624Z,20.86
2023-08-12T19:24:13.957Z,20.89
2023-08-12T19:26:41.897Z,20.90
2023-08-12T19:29:10.900Z,20.92
2023-08-12T19:31:42.750Z,20.93
2023-08-12T19:34:13.797Z,20.94
2023-08-12T19:37:02.581Z,20.95
2023-08-12T19:39:35.083Z,20.94
2023-08-12T19:42:03.562Z,20.95
2023-08-12T19:44:32.140Z,20.94
2023-08-12T19:47:05.455Z,20.92
2023-08-12T19:49:36.818Z,20.94
2023-08-12T19:52:05.500Z,20.94
2023-08-12T19:54:35.145Z,20.95
2023-08-12T19:57:04.770Z,20.93
2023-08-12T19:59:35.293Z,20.90
2023-08-12T20:02:06.284Z,20.93
2023-08-12T20:04:34.626Z,20.96
2023-08-12T20:07:03.033Z,20.95
2023-08-12T20:09:32.348Z,20.82
2023-08-12T20:12:07.247Z,20.79
2023-08-12T20:14:35.154Z,20.83
2023-08-12T20:17:04.471Z,20.87
2023-08-12T20:19:38.480Z,20.90
2023-08-12T20:22:06.986Z,20.91
2023-08-12T20:24:35.015Z,20.92
2023-08-12T20:27:03.323Z,20.89
2023-08-12T20:29:32.354Z,20.88
2023-08-12T20:32:02.890Z,20.86
2023-08-12T20:34:31.449Z,20.82
2023-08-12T20:37:00.907Z,20.78
2023-08-12T20:39:32.961Z,20.80
2023-08-12T20:42:04.900Z,20.81
2023-08-12T20:44:33.576Z,20.82
2023-08-12T20:47:02.529Z,20.83
2023-08-12T20:49:30.232Z,20.86
2023-08-12T20:52:01.544Z,20.86
2023-08-12T20:54:29.511Z,20.87
2023-08-12T20:56:58.905Z,20.87
2023-08-12T20:59:32.100Z,20.88
2023-08-12T21:02:01.397Z,20.87
2023-08-12T21:04:29.444Z,20.88
2023-08-12T21:07:00.640Z,20.82
2023-08-12T21:09:29.718Z,20.81
2023-08-12T21:11:57.687Z,20.75
2023-08-12T21:14:26.619Z,20.77
2023-08-12T21:16:53.826Z,20.74
2023-08-12T21:19:22.655Z,20.70
2023-08-12T21:21:50.203Z,20.65
2023-08-12T21:24:18.646Z,20.67
2023-08-12T21:26:51.646Z,20.64
2023-08-12T21:29:19.060Z,20.61
2023-08-12T21:31:47.260Z,20.59
2023-08-12T21:34:14.734Z,20.54
2023-08-12T21:36:42.275Z,20.50
2023-08-12T21:39:09.492Z,20.48
2023-08-12T21:41:36.789Z,20.45
2023-08-12T21:44:06.691Z,20.42
2023-08-12T21:46:34.352Z,20.38
2023-08-12T21:49:01.834Z,20.38
2023-08-12T21:51:29.255Z,20.36
2023-08-12T21:53:56.485Z,20.35
2023-08-12T21:56:24.941Z,20.35
2023-08-12T21:58:55.481Z,20.34
2023-08-12T22:01:23.992Z,20.31
2023-08-12T22:03:51.337Z,20.31
2023-08-12T22:06:19.062Z,20.28
2023-08-12T22:08:46.836Z,20.27
2023-08-12T22:11:15.037Z,20.25
2023-08-12T22:13:42.322Z,20.25
2023-08-12T22:16:09.746Z,20.25
2023-08-12T22:18:37.138Z,20.22
2023-08-12T22:21:05.335Z,20.22
2023-08-12T22:23:32.733Z,20.20
2023-08-12T22:25:59.949Z,20.19
2023-08-12T22:28:27.268Z,20.20
2023-08-12T22:30:54.560Z,20.17
2023-08-12T22:33:23.425Z,20.17
2023-08-12T22:35:50.664Z,20.15
2023-08-12T22:38:17.759Z,20.15
2023-08-12T22:40:44.893Z,20.12
2023-08-12T22:43:11.920Z,20.12
2023-08-12T22:45:43.674Z,20.11
2023-08-12T22:48:11.311Z,20.10
2023-08-12T22:50:38.595Z,20.05
2023-08-12T22:53:06.029Z,20.08
2023-08-12T22:55:33.737Z,20.08
2023-08-12T22:58:01.074Z,20.06
2023-08-12T23:00:28.264Z,20.06
2023-08-12T23:02:55.523Z,20.06
2023-08-12T23:05:22.680Z,20.05
2023-08-12T23:07:49.765Z,20.04
2023-08-12T23:10:16.821Z,20.03
2023-08-12T23:12:43.984Z,20.02
2023-08-12T23:15:11.249Z,20.03
2023-08-12T23:17:38.615Z,20.01
2023-08-12T23:20:07.238Z,20.01
2023-08-12T23:22:34.659Z,19.97
2023-08-12T23:25:01.888Z,19.96
2023-08-12T23:27:28.943Z,19.96
2023-08-12T23:29:56.056Z,19.95
2023-08-12T23:32:23.945Z,19.94
2023-08-12T23:34:51.093Z,19.94
2023-08-12T23:37:18.205Z,19.94
2023-08-12T23:39:45.262Z,19.94
2023-08-12T23:42:13.184Z,19.92
2023-08-12T23:44:40.668Z,19.93
2023-08-12T23:47:07.987Z,19.94
2023-08-12T23:49:35.477Z,19.92
2023-08-12T23:52:02.534Z,19.92
2023-08-12T23:54:29.695Z,19.96
2023-08-12T23:56:57.118Z,19.95
2023-08-12T23:59:24.130Z,19.97
